sensor_id;sensor_type;location;lat;lon;timestamp;pressure;altitude;pressure_sealevel;temperature;humidity
3142;BME280;1581;51.568;6.998;2023-07-29T00:02:10;100047.84;;;21.57;100.00
3142;BME280;1581;51.568;6.998;2023-07-29T00:04:37;100053.00;;;21.54;100.00
3142;BME280;1581;51.568;6.998;2023-07-29T00:07:05;100055.69;;;21.54;100.00
3142;BME280;1581;51.568;6.998;2023-07-29T00:09:34;100047.56;;;21.49;100.00
3142;BME280;1581;51.568;6.998;2023-07-29T00:12:02;100047.56;;;21.49;100.00
3142;BME280;1581;51.568;6.998;2023-07-29T00:14:30;100043.78;;;21.55;100.00
3142;BME280;1581;51.568;6.998;2023-07-29T00:16:57;100050.53;;;21.52;100.00
3142;BME280;1581;51.568;6.998;2023-07-29T00:19:25;100053.78;;;21.54;100.00
3142;BME280;1581;51.568;6.998;2023-07-29T00:21:54;100059.25;;;21.49;100.00
3142;BME280;1581;51.568;6.998;2023-07-29T00:24:22;100060.88;;;21.50;100.00
3142;BME280;1581;51.568;6.998;2023-07-29T00:26:51;100059.25;;;21.49;100.00
3142;BME280;1581;51.568;6.998;2023-07-29T00:29:19;100061.38;;;21.52;100.00
3142;BME280;1581;51.568;6.998;2023-07-29T00:31:46;100049.19;;;21.55;100.00
3142;BME280;1581;51.568;6.998;2023-07-29T00:34:14;100046.78;;;21.48;100.00
3142;BME280;1581;51.568;6.998;2023-07-29T00:36:45;100052.19;;;21.48;100.00
3142;BME280;1581;51.568;6.998;2023-07-29T00:39:13;100036.75;;;21.44;100.00
3142;BME280;1581;51.568;6.998;2023-07-29T00:41:40;100037.84;;;21.43;100.00
3142;BME280;1581;51.568;6.998;2023-07-29T00:44:09;100031.06;;;21.40;100.00
3142;BME280;1581;51.568;6.998;2023-07-29T00:46:38;100027.25;;;21.41;100.00
3142;BME280;1581;51.568;6.998;2023-07-29T00:49:08;100026.75;;;21.39;100.00
3142;BME280;1581;51.568;6.998;2023-07-29T00:51:36;100020.50;;;21.44;100.00
3142;BME280;1581;51.568;6.998;2023-07-29T00:54:03;100029.16;;;21.41;100.00
3142;BME280;1581;51.568;6.998;2023-07-29T00:56:31;100033.00;;;21.35;100.00
3142;BME280;1581;51.568;6.998;2023-07-29T00:58:59;100027.03;;;21.33;100.00
3142;BME280;1581;51.568;6.998;2023-07-29T01:01:30;100032.69;;;21.31;100.00
3142;BME280;1581;51.568;6.998;2023-07-29T01:03:58;100022.41;;;21.33;100.00
3142;BME280;1581;51.568;6.998;2023-07-29T01:06:34;100030.78;;;21.37;100.00
3142;BME280;1581;51.568;6.998;2023-07-29T01:09:16;100023.44;;;21.42;100.00
3142;BME280;1581;51.568;6.998;2023-07-29T01:11:58;100027.00;;;21.43;100.00
3142;BME280;1581;51.568;6.998;2023-07-29T01:14:38;100024.28;;;21.43;100.00
3142;BME280;1581;51.568;6.998;2023-07-29T01:17:13;100018.03;;;21.42;100.00
3142;BME280;1581;51.568;6.998;2023-07-29T01:19:57;100023.44;;;21.42;100.00
3142;BME280;1581;51.568;6.998;2023-07-29T01:22:27;100023.47;;;21.37;100.00
3142;BME280;1581;51.568;6.998;2023-07-29T01:24:58;100019.41;;;21.40;100.00
3142;BME280;1581;51.568;6.998;2023-07-29T01:27:26;100025.91;;;21.44;100.00
3142;BME280;1581;51.568;6.998;2023-07-29T01:29:57;100026.44;;;21.46;100.00
3142;BME280;1581;51.568;6.998;2023-07-29T01:32:29;100020.50;;;21.44;100.00
3142;BME280;1581;51.568;6.998;2023-07-29T01:35:15;100023.44;;;21.42;100.00
3142;BME280;1581;51.568;6.998;2023-07-29T01:37:48;100011.81;;;21.37;100.00
3142;BME280;1581;51.568;6.998;2023-07-29T01:40:18;100006.38;;;21.37;100.00
3142;BME280;1581;51.568;6.998;2023-07-29T01:42:47;100003.13;;;21.45;100.00
3142;BME280;1581;51.568;6.998;2023-07-29T01:45:15;99999.06;;;21.42;100.00
3142;BME280;1581;51.568;6.998;2023-07-29T01:47:42;99993.63;;;21.42;100.00
3142;BME280;1581;51.568;6.998;2023-07-29T01:50:11;99997.44;;;21.46;100.00
3142;BME280;1581;51.568;6.998;2023-07-29T01:52:38;99990.38;;;21.45;100.00
3142;BME280;1581;51.568;6.998;2023-07-29T01:55:07;99996.63;;;21.46;100.00
3142;BME280;1581;51.568;6.998;2023-07-29T01:57:36;100001.22;;;21.45;100.00
3142;BME280;1581;51.568;6.998;2023-07-29T02:00:06;100000.44;;;21.40;100.00
3142;BME280;1581;51.568;6.998;2023-07-29T02:02:34;99991.78;;;21.33;100.00
3142;BME280;1581;51.568;6.998;2023-07-29T02:05:01;99988.25;;;21.32;100.00
3142;BME280;1581;51.568;6.998;2023-07-29T02:07:29;99990.16;;;21.27;100.00
3142;BME280;1581;51.568;6.998;2023-07-29T02:09:57;99999.38;;;21.31;100.00
3142;BME280;1581;51.568;6.998;2023-07-29T02:12:24;99992.31;;;21.35;100.00
3142;BME280;1581;51.568;6.998;2023-07-29T02:14:53;99979.03;;;21.33;100.00
3142;BME280;1581;51.568;6.998;2023-07-29T02:17:21;99973.91;;;21.32;100.00
3142;BME280;1581;51.568;6.998;2023-07-29T02:19:49;99964.41;;;21.34;100.00
3142;BME280;1581;51.568;6.998;2023-07-29T02:22:17;99959.53;;;21.36;100.00
3142;BME280;1581;51.568;6.998;2023-07-29T02:24:45;99960.06;;;21.33;100.00
3142;BME280;1581;51.568;6.998;2023-07-29T02:27:13;99965.22;;;21.30;100.00
3142;BME280;1581;51.568;6.998;2023-07-29T02:29:40;99974.16;;;21.35;100.00
3142;BME280;1581;51.568;6.998;2023-07-29T02:32:10;99972.53;;;21.39;100.00
3142;BME280;1581;51.568;6.998;2023-07-29T02:34:37;99959.47;;;21.41;100.00
3142;BME280;1581;51.568;6.998;2023-07-29T02:37:05;99962.47;;;21.45;100.00
3142;BME280;1581;51.568;6.998;2023-07-29T02:39:33;99960.56;;;21.45;100.00
3142;BME280;1581;51.568;6.998;2023-07-29T02:42:00;99973.31;;;21.45;100.00
3142;BME280;1581;51.568;6.998;2023-07-29T02:44:28;99973.56;;;21.48;100.00
3142;BME280;1581;51.568;6.998;2023-07-29T02:46:55;99978.75;;;21.40;100.00
3142;BME280;1581;51.568;6.998;2023-07-29T02:49:25;99980.09;;;21.42;100.00
3142;BME280;1581;51.568;6.998;2023-07-29T02:51:52;99970.03;;;21.48;100.00
3142;BME280;1581;51.568;6.998;2023-07-29T02:54:20;99969.22;;;21.47;100.00
3142;BME280;1581;51.568;6.998;2023-07-29T02:56:47;99967.56;;;21.51;100.00
3142;BME280;1581;51.568;6.998;2023-07-29T02:59:15;99968.69;;;21.45;100.00
3142;BME280;1581;51.568;6.998;2023-07-29T03:01:43;99970.31;;;21.41;100.00
3142;BME280;1581;51.568;6.998;2023-07-29T03:04:10;99978.75;;;21.45;100.00
3142;BME280;1581;51.568;6.998;2023-07-29T03:06:40;99978.19;;;21.43;100.00
3142;BME280;1581;51.568;6.998;2023-07-29T03:09:08;99973.03;;;21.41;100.00
3142;BME280;1581;51.568;6.998;2023-07-29T03:11:36;99984.44;;;21.33;100.00
3142;BME280;1581;51.568;6.998;2023-07-29T03:14:04;99979.03;;;21.38;100.00
3142;BME280;1581;51.568;6.998;2023-07-29T03:16:32;99991.22;;;21.41;100.00
3142;BME280;1581;51.568;6.998;2023-07-29T03:18:59;99984.75;;;21.32;100.00
3142;BME280;1581;51.568;6.998;2023-07-29T03:21:27;99974.44;;;21.34;100.00
3142;BME280;1581;51.568;6.998;2023-07-29T03:23:56;99982.81;;;21.37;100.00
3142;BME280;1581;51.568;6.998;2023-07-29T03:26:24;99985.50;;;21.42;100.00
3142;BME280;1581;51.568;6.998;2023-07-29T03:28:51;99990.72;;;21.34;100.00
3142;BME280;1581;51.568;6.998;2023-07-29T03:31:19;99982.28;;;21.35;100.00
3142;BME280;1581;51.568;6.998;2023-07-29T03:33:46;99971.94;;;21.42;100.00
3142;BME280;1581;51.568;6.998;2023-07-29T03:36:14;99976.59;;;21.32;100.00
3142;BME280;1581;51.568;6.998;2023-07-29T03:38:42;99982.31;;;21.25;100.00
3142;BME280;1581;51.568;6.998;2023-07-29T03:41:12;99976.31;;;21.33;100.00
3142;BME280;1581;51.568;6.998;2023-07-29T03:43:40;99971.72;;;21.29;100.00
3142;BME280;1581;51.568;6.998;2023-07-29T03:46:08;99970.38;;;21.31;100.00
3142;BME280;1581;51.568;6.998;2023-07-29T03:48:36;99965.50;;;21.28;100.00
3142;BME280;1581;51.568;6.998;2023-07-29T03:51:03;99962.78;;;21.33;100.00
3142;BME280;1581;51.568;6.998;2023-07-29T03:53:31;99964.94;;;21.36;100.00
3142;BME280;1581;51.568;6.998;2023-07-29T03:55:59;99959.22;;;21.38;100.00
3142;BME280;1581;51.568;6.998;2023-07-29T03:58:28;99947.84;;;21.41;100.00
3142;BME280;1581;51.568;6.998;2023-07-29T04:00:55;99958.94;;;21.44;100.00
3142;BME280;1581;51.568;6.998;2023-07-29T04:03:23;99957.56;;;21.47;100.00
3142;BME280;1581;51.568;6.998;2023-07-29T04:05:51;99960.56;;;21.50;100.00
3142;BME280;1581;51.568;6.998;2023-07-29T04:08:19;99962.72;;;21.43;100.00
3142;BME280;1581;51.568;6.998;2023-07-29T04:10:47;99961.44;;;21.36;100.00
3142;BME280;1581;51.568;6.998;2023-07-29T04:13:15;99966.81;;;21.41;100.00
3142;BME280;1581;51.568;6.998;2023-07-29T04:15:44;99966.53;;;21.42;100.00
3142;BME280;1581;51.568;6.998;2023-07-29T04:18:12;99964.91;;;21.41;100.00
3142;BME280;1581;51.568;6.998;2023-07-29T04:20:40;99967.66;;;21.36;100.00
3142;BME280;1581;51.568;6.998;2023-07-29T04:23:07;99972.28;;;21.31;100.00
3142;BME280;1581;51.568;6.998;2023-07-29T04:25:35;99961.19;;;21.27;100.00
3142;BME280;1581;51.568;6.998;2023-07-29T04:28:03;99946.25;;;21.30;100.00
3142;BME280;1581;51.568;6.998;2023-07-29T04:30:31;99940.59;;;21.26;100.00
3142;BME280;1581;51.568;6.998;2023-07-29T04:33:00;99947.38;;;21.19;100.00
3142;BME280;1581;51.568;6.998;2023-07-29T04:35:28;99956.34;;;21.14;100.00
3142;BME280;1581;51.568;6.998;2023-07-29T04:37:55;99969.59;;;21.21;100.00
3142;BME280;1581;51.568;6.998;2023-07-29T04:40:23;99976.66;;;21.22;100.00
3142;BME280;1581;51.568;6.998;2023-07-29T04:42:52;99982.31;;;21.25;100.00
3142;BME280;1581;51.568;6.998;2023-07-29T04:45:19;99991.56;;;21.14;100.00
3142;BME280;1581;51.568;6.998;2023-07-29T04:47:47;99989.97;;;21.03;100.00
3142;BME280;1581;51.568;6.998;2023-07-29T04:50:16;99997.03;;;20.99;100.00
3142;BME280;1581;51.568;6.998;2023-07-29T04:52:44;99998.91;;;21.04;100.00
3142;BME280;1581;51.568;6.998;2023-07-29T04:55:12;100008.91;;;21.13;100.00
3142;BME280;1581;51.568;6.998;2023-07-29T04:57:39;100007.28;;;21.02;100.00
3142;BME280;1581;51.568;6.998;2023-07-29T05:00:08;100013.28;;;20.94;100.00
3142;BME280;1581;51.568;6.998;2023-07-29T05:02:36;100013.00;;;20.91;100.00
3142;BME280;1581;51.568;6.998;2023-07-29T05:05:05;100013.81;;;20.91;100.00
3142;BME280;1581;51.568;6.998;2023-07-29T05:07:34;100008.69;;;20.95;100.00
3142;BME280;1581;51.568;6.998;2023-07-29T05:10:01;100000.81;;;20.93;100.00
3142;BME280;1581;51.568;6.998;2023-07-29T05:12:30;99991.59;;;20.94;100.00
3142;BME280;1581;51.568;6.998;2023-07-29T05:14:58;99977.78;;;21.01;100.00
3142;BME280;1581;51.568;6.998;2023-07-29T05:17:26;99959.59;;;21.11;100.00
3142;BME280;1581;51.568;6.998;2023-07-29T05:19:54;99949.25;;;21.28;100.00
3142;BME280;1581;51.568;6.998;2023-07-29T05:22:22;99958.72;;;21.31;100.00
3142;BME280;1581;51.568;6.998;2023-07-29T05:24:51;99961.22;;;21.12;100.00
3142;BME280;1581;51.568;6.998;2023-07-29T05:27:19;99976.66;;;21.12;100.00
3142;BME280;1581;51.568;6.998;2023-07-29T05:29:46;99973.38;;;21.20;100.00
3142;BME280;1581;51.568;6.998;2023-07-29T05:32:14;99976.13;;;21.15;100.00
3142;BME280;1581;51.568;6.998;2023-07-29T05:34:42;99979.13;;;21.08;100.00
3142;BME280;1581;51.568;6.998;2023-07-29T05:37:10;99995.34;;;21.13;100.00
3142;BME280;1581;51.568;6.998;2023-07-29T05:39:37;100008.34;;;21.21;100.00
3142;BME280;1581;51.568;6.998;2023-07-29T05:42:07;100021.38;;;21.14;100.00
3142;BME280;1581;51.568;6.998;2023-07-29T05:44:34;100013.78;;;21.16;100.00
3142;BME280;1581;51.568;6.998;2023-07-29T05:47:02;100020.56;;;21.14;100.00
3142;BME280;1581;51.568;6.998;2023-07-29T05:49:30;100025.72;;;21.10;100.00
3142;BME280;1581;51.568;6.998;2023-07-29T05:51:58;100039.81;;;20.97;100.00
3142;BME280;1581;51.568;6.998;2023-07-29T05:54:26;100041.72;;;21.02;100.00
3142;BME280;1581;51.568;6.998;2023-07-29T05:56:53;100044.13;;;21.03;100.00
3142;BME280;1581;51.568;6.998;2023-07-29T05:59:22;100047.13;;;20.92;100.00
3142;BME280;1581;51.568;6.998;2023-07-29T06:01:50;100044.13;;;21.03;100.00
3142;BME280;1581;51.568;6.998;2023-07-29T06:04:18;100041.44;;;21.08;100.00
3142;BME280;1581;51.568;6.998;2023-07-29T06:06:46;100046.59;;;21.05;100.00
3142;BME280;1581;51.568;6.998;2023-07-29T06:09:13;100044.16;;;21.08;100.00
3142;BME280;1581;51.568;6.998;2023-07-29T06:11:41;100057.44;;;20.95;100.00
3142;BME280;1581;51.568;6.998;2023-07-29T06:14:09;100057.41;;;21.00;100.00
3142;BME280;1581;51.568;6.998;2023-07-29T06:16:38;100061.75;;;20.91;100.00
3142;BME280;1581;51.568;6.998;2023-07-29T06:19:05;100062.56;;;20.91;100.00
3142;BME280;1581;51.568;6.998;2023-07-29T06:21:34;100068.81;;;20.92;100.00
3142;BME280;1581;51.568;6.998;2023-07-29T06:24:02;100062.56;;;20.91;100.00
3142;BME280;1581;51.568;6.998;2023-07-29T06:26:30;100065.00;;;21.03;100.00
3142;BME280;1581;51.568;6.998;2023-07-29T06:28:58;100075.03;;;21.02;100.00
3142;BME280;1581;51.568;6.998;2023-07-29T06:31:26;100076.66;;;21.08;100.00
3142;BME280;1581;51.568;6.998;2023-07-29T06:33:55;100075.28;;;21.11;100.00
3142;BME280;1581;51.568;6.998;2023-07-29T06:36:22;100079.63;;;21.22;100.00
3142;BME280;1581;51.568;6.998;2023-07-29T06:38:50;100093.16;;;21.22;100.00
3142;BME280;1581;51.568;6.998;2023-07-29T06:41:18;100082.03;;;21.33;100.00
3142;BME280;1581;51.568;6.998;2023-07-29T06:43:46;100086.66;;;21.28;100.00
3142;BME280;1581;51.568;6.998;2023-07-29T06:46:13;100085.56;;;21.29;100.00
3142;BME280;1581;51.568;6.998;2023-07-29T06:48:41;100084.22;;;21.21;100.00
3142;BME280;1581;51.568;6.998;2023-07-29T06:51:10;100085.84;;;21.27;100.00
3142;BME280;1581;51.568;6.998;2023-07-29T06:53:38;100084.22;;;21.16;100.00
3142;BME280;1581;51.568;6.998;2023-07-29T06:56:06;100080.44;;;21.02;100.00
3142;BME280;1581;51.568;6.998;2023-07-29T06:58:34;100085.84;;;21.02;100.00
3142;BME280;1581;51.568;6.998;2023-07-29T07:01:02;100086.66;;;21.08;100.00
3142;BME280;1581;51.568;6.998;2023-07-29T07:03:29;100090.75;;;21.05;100.00
3142;BME280;1581;51.568;6.998;2023-07-29T07:05:58;100081.81;;;20.95;100.00
3142;BME280;1581;51.568;6.998;2023-07-29T07:08:27;100085.59;;;20.89;100.00
3142;BME280;1581;51.568;6.998;2023-07-29T07:10:56;100077.19;;;20.95;100.00
3142;BME280;1581;51.568;6.998;2023-07-29T07:13:24;100072.88;;;20.89;100.00
3142;BME280;1581;51.568;6.998;2023-07-29T07:15:54;100082.06;;;21.03;100.00
3142;BME280;1581;51.568;6.998;2023-07-29T07:18:22;100072.31;;;21.12;100.00
3142;BME280;1581;51.568;6.998;2023-07-29T07:20:50;100082.06;;;21.13;100.00
3142;BME280;1581;51.568;6.998;2023-07-29T07:23:18;100073.06;;;21.38;100.00
3142;BME280;1581;51.568;6.998;2023-07-29T07:25:48;100086.88;;;21.46;100.00
3142;BME280;1581;51.568;6.998;2023-07-29T07:28:15;100079.56;;;21.52;100.00
3142;BME280;1581;51.568;6.998;2023-07-29T07:30:43;100082.53;;;21.55;100.00
3142;BME280;1581;51.568;6.998;2023-07-29T07:33:11;100088.81;;;21.56;100.00
3142;BME280;1581;51.568;6.998;2023-07-29T07:35:39;100081.44;;;21.51;100.00
3142;BME280;1581;51.568;6.998;2023-07-29T07:38:08;100091.78;;;21.59;100.00
3142;BME280;1581;51.568;6.998;2023-07-29T07:40:36;100085.25;;;21.70;100.00
3142;BME280;1581;51.568;6.998;2023-07-29T07:43:05;100089.88;;;21.65;100.00
3142;BME280;1581;51.568;6.998;2023-07-29T07:45:33;100096.66;;;21.57;100.00
3142;BME280;1581;51.568;6.998;2023-07-29T07:48:01;100092.84;;;21.63;100.00
3142;BME280;1581;51.568;6.998;2023-07-29T07:50:30;100080.34;;;21.67;100.00
3142;BME280;1581;51.568;6.998;2023-07-29T07:52:58;100080.91;;;21.64;100.00
3142;BME280;1581;51.568;6.998;2023-07-29T07:55:26;100079.28;;;21.68;100.00
3142;BME280;1581;51.568;6.998;2023-07-29T07:57:53;100079.53;;;21.71;100.00
3142;BME280;1581;51.568;6.998;2023-07-29T08:00:23;100088.16;;;21.78;100.00
3142;BME280;1581;51.568;6.998;2023-07-29T08:02:50;100087.56;;;21.96;100.00
3142;BME280;1581;51.568;6.998;2023-07-29T08:05:18;100084.78;;;22.06;100.00
3142;BME280;1581;51.568;6.998;2023-07-29T08:07:46;100083.19;;;22.05;100.00
3142;BME280;1581;51.568;6.998;2023-07-29T08:10:14;100089.38;;;22.16;100.00
3142;BME280;1581;51.568;6.998;2023-07-29T08:12:41;100092.94;;;22.06;100.00
3142;BME280;1581;51.568;6.998;2023-07-29T08:15:09;100092.19;;;21.96;100.00
3142;BME280;1581;51.568;6.998;2023-07-29T08:17:38;100089.81;;;21.79;100.00
3142;BME280;1581;51.568;6.998;2023-07-29T08:20:07;100095.78;;;21.76;100.00
3142;BME280;1581;51.568;6.998;2023-07-29T08:22:36;100089.78;;;21.84;100.00
3142;BME280;1581;51.568;6.998;2023-07-29T08:25:04;100091.47;;;21.70;100.00
3142;BME280;1581;51.568;6.998;2023-07-29T08:27:34;100094.44;;;21.74;100.00
3142;BME280;1581;51.568;6.998;2023-07-29T08:30:02;100095.22;;;21.84;100.00
3142;BME280;1581;51.568;6.998;2023-07-29T08:32:30;100090.59;;;21.85;100.00
3142;BME280;1581;51.568;6.998;2023-07-29T08:34:59;100088.97;;;21.84;100.00
3142;BME280;1581;51.568;6.998;2023-07-29T08:37:26;100084.38;;;21.84;100.00
3142;BME280;1581;51.568;6.998;2023-07-29T08:39:55;100098.72;;;21.85;100.00
3142;BME280;1581;51.568;6.998;2023-07-29T08:42:24;100085.66;;;21.97;100.00
3142;BME280;1581;51.568;6.998;2023-07-29T08:44:56;100096.53;;;21.97;100.00
3142;BME280;1581;51.568;6.998;2023-07-29T08:47:29;100089.91;;;22.13;100.00
3142;BME280;1581;51.568;6.998;2023-07-29T08:49:58;100096.28;;;22.47;100.00
3142;BME280;1581;51.568;6.998;2023-07-29T08:52:27;100092.38;;;22.62;100.00
3142;BME280;1581;51.568;6.998;2023-07-29T08:54:58;100083.72;;;22.60;100.00
3142;BME280;1581;51.568;6.998;2023-07-29T08:57:26;100078.72;;;22.72;100.00
3142;BME280;1581;51.568;6.998;2023-07-29T08:59:54;100084.94;;;22.78;100.00
3142;BME280;1581;51.568;6.998;2023-07-29T09:02:23;100070.31;;;23.02;100.00
3142;BME280;1581;51.568;6.998;2023-07-29T09:04:51;100068.28;;;23.18;100.00
3142;BME280;1581;51.568;6.998;2023-07-29T09:07:20;100076.56;;;23.36;100.00
3142;BME280;1581;51.568;6.998;2023-07-29T09:09:48;100071.41;;;23.35;100.00
3142;BME280;1581;51.568;6.998;2023-07-29T09:12:16;100076.22;;;23.14;100.00
3142;BME280;1581;51.568;6.998;2023-07-29T09:14:43;100079.22;;;23.13;100.00
3142;BME280;1581;51.568;6.998;2023-07-29T09:17:11;100082.72;;;23.18;100.00
3142;BME280;1581;51.568;6.998;2023-07-29T09:19:39;100094.16;;;23.44;100.00
3142;BME280;1581;51.568;6.998;2023-07-29T09:22:19;100095.81;;;23.68;100.00
3142;BME280;1581;51.568;6.998;2023-07-29T09:24:48;100085.47;;;23.93;100.00
3142;BME280;1581;51.568;6.998;2023-07-29T09:27:24;100089.50;;;23.96;100.00
3142;BME280;1581;51.568;6.998;2023-07-29T09:29:53;100097.25;;;24.07;100.00
3142;BME280;1581;51.568;6.998;2023-07-29T09:32:22;100093.06;;;24.15;100.00
3142;BME280;1581;51.568;6.998;2023-07-29T09:34:51;100093.81;;;24.20;100.00
3142;BME280;1581;51.568;6.998;2023-07-29T09:37:21;100100.28;;;24.47;100.00
3142;BME280;1581;51.568;6.998;2023-07-29T09:39:50;100094.75;;;24.11;100.00
3142;BME280;1581;51.568;6.998;2023-07-29T09:42:19;100102.53;;;23.99;100.00
3142;BME280;1581;51.568;6.998;2023-07-29T09:44:48;100106.59;;;23.78;100.00
3142;BME280;1581;51.568;6.998;2023-07-29T09:47:20;100106.16;;;23.66;100.00
3142;BME280;1581;51.568;6.998;2023-07-29T09:49:48;100105.47;;;23.55;100.00
3142;BME280;1581;51.568;6.998;2023-07-29T09:52:17;100113.91;;;23.54;100.00
3142;BME280;1581;51.568;6.998;2023-07-29T09:54:47;100110.19;;;23.45;100.00
3142;BME280;1581;51.568;6.998;2023-07-29T09:57:16;100104.94;;;23.25;100.00
3142;BME280;1581;51.568;6.998;2023-07-29T09:59:54;100113.09;;;23.25;100.00
3142;BME280;1581;51.568;6.998;2023-07-29T10:02:22;100110.94;;;23.50;100.00
3142;BME280;1581;51.568;6.998;2023-07-29T10:04:52;100109.25;;;23.83;100.00
3142;BME280;1581;51.568;6.998;2023-07-29T10:07:21;100104.16;;;23.76;100.00
3142;BME280;1581;51.568;6.998;2023-07-29T10:09:52;100107.06;;;23.85;100.00
3142;BME280;1581;51.568;6.998;2023-07-29T10:12:21;100104.75;;;23.97;100.00
3142;BME280;1581;51.568;6.998;2023-07-29T10:14:50;100101.59;;;24.08;100.00
3142;BME280;1581;51.568;6.998;2023-07-29T10:17:20;100108.13;;;24.31;100.00
3142;BME280;1581;51.568;6.998;2023-07-29T10:19:48;100098.66;;;24.46;100.00
3142;BME280;1581;51.568;6.998;2023-07-29T10:22:17;100103.94;;;24.56;99.29
3142;BME280;1581;51.568;6.998;2023-07-29T10:24:48;100098.25;;;24.71;100.00
3142;BME280;1581;51.568;6.998;2023-07-29T10:27:18;100097.81;;;24.83;100.00
3142;BME280;1581;51.568;6.998;2023-07-29T10:29:46;100087.09;;;24.73;100.00
3142;BME280;1581;51.568;6.998;2023-07-29T10:32:15;100099.31;;;24.57;99.42
3142;BME280;1581;51.568;6.998;2023-07-29T10:34:43;100099.53;;;24.60;98.78
3142;BME280;1581;51.568;6.998;2023-07-29T10:37:11;100107.41;;;24.62;99.71
3142;BME280;1581;51.568;6.998;2023-07-29T10:39:40;100101.28;;;24.70;100.00
3142;BME280;1581;51.568;6.998;2023-07-29T10:42:08;100096.38;;;24.53;100.00
3142;BME280;1581;51.568;6.998;2023-07-29T10:44:50;100099.53;;;24.60;97.78
3142;BME280;1581;51.568;6.998;2023-07-29T10:47:22;100111.31;;;24.74;100.00
3142;BME280;1581;51.568;6.998;2023-07-29T10:49:52;100089.13;;;24.62;97.10
3142;BME280;1581;51.568;6.998;2023-07-29T10:52:41;100096.66;;;24.70;98.97
3142;BME280;1581;51.568;6.998;2023-07-29T10:55:27;100087.72;;;24.83;98.38
3142;BME280;1581;51.568;6.998;2023-07-29T10:58:14;100099.28;;;24.94;100.00
3142;BME280;1581;51.568;6.998;2023-07-29T11:00:45;100088.66;;;25.11;100.00
3142;BME280;1581;51.568;6.998;2023-07-29T11:03:14;100094.47;;;25.36;95.09
3142;BME280;1581;51.568;6.998;2023-07-29T11:05:45;100095.81;;;25.52;91.47
3142;BME280;1581;51.568;6.998;2023-07-29T11:08:22;100083.31;;;25.64;92.39
3142;BME280;1581;51.568;6.998;2023-07-29T11:11:05;100082.16;;;25.52;91.70
3142;BME280;1581;51.568;6.998;2023-07-29T11:13:34;100085.00;;;25.33;92.61
3142;BME280;1581;51.568;6.998;2023-07-29T11:16:04;100095.34;;;25.00;92.44
3142;BME280;1581;51.568;6.998;2023-07-29T11:18:34;100088.00;;;25.00;96.56
3142;BME280;1581;51.568;6.998;2023-07-29T11:21:03;100081.56;;;24.59;95.18
3142;BME280;1581;51.568;6.998;2023-07-29T11:23:33;100080.69;;;24.45;97.47
3142;BME280;1581;51.568;6.998;2023-07-29T11:26:02;100088.59;;;24.42;98.70
3142;BME280;1581;51.568;6.998;2023-07-29T11:28:30;100095.81;;;24.33;97.87
3142;BME280;1581;51.568;6.998;2023-07-29T11:30:58;100085.19;;;24.32;99.62
3142;BME280;1581;51.568;6.998;2023-07-29T11:33:28;100087.41;;;24.11;99.44
3142;BME280;1581;51.568;6.998;2023-07-29T11:35:56;100084.59;;;24.16;99.08
3142;BME280;1581;51.568;6.998;2023-07-29T11:38:24;100087.13;;;24.31;96.78
3142;BME280;1581;51.568;6.998;2023-07-29T11:40:56;100082.41;;;24.36;96.25
3142;BME280;1581;51.568;6.998;2023-07-29T11:43:24;100083.09;;;24.29;96.83
3142;BME280;1581;51.568;6.998;2023-07-29T11:45:53;100087.19;;;24.26;98.18
3142;BME280;1581;51.568;6.998;2023-07-29T11:48:31;100078.88;;;24.36;98.32
3142;BME280;1581;51.568;6.998;2023-07-29T11:50:58;100078.97;;;24.68;94.74
3142;BME280;1581;51.568;6.998;2023-07-29T11:53:28;100073.63;;;25.13;92.97
3142;BME280;1581;51.568;6.998;2023-07-29T11:55:57;100079.66;;;25.10;95.45
3142;BME280;1581;51.568;6.998;2023-07-29T11:58:26;100080.00;;;25.22;92.28
3142;BME280;1581;51.568;6.998;2023-07-29T12:00:54;100069.94;;;25.36;92.42
3142;BME280;1581;51.568;6.998;2023-07-29T12:03:22;100066.81;;;25.56;91.25
3142;BME280;1581;51.568;6.998;2023-07-29T12:05:51;100063.00;;;25.97;89.75
3142;BME280;1581;51.568;6.998;2023-07-29T12:08:19;100067.13;;;26.57;89.31
3142;BME280;1581;51.568;6.998;2023-07-29T12:10:47;100067.09;;;26.92;80.02
3142;BME280;1581;51.568;6.998;2023-07-29T12:13:16;100075.13;;;27.10;77.09
3142;BME280;1581;51.568;6.998;2023-07-29T12:15:44;100064.13;;;27.02;78.96
3142;BME280;1581;51.568;6.998;2023-07-29T12:18:12;100068.47;;;27.03;78.42
3142;BME280;1581;51.568;6.998;2023-07-29T12:20:41;100066.47;;;26.95;79.69
3142;BME280;1581;51.568;6.998;2023-07-29T12:23:10;100073.34;;;26.49;81.82
3142;BME280;1581;51.568;6.998;2023-07-29T12:25:38;100070.59;;;26.00;81.17
3142;BME280;1581;51.568;6.998;2023-07-29T12:28:07;100076.66;;;25.97;84.42
3142;BME280;1581;51.568;6.998;2023-07-29T12:30:42;100080.75;;;26.21;80.49
3142;BME280;1581;51.568;6.998;2023-07-29T12:33:10;100070.50;;;26.54;81.55
3142;BME280;1581;51.568;6.998;2023-07-29T12:35:38;100068.66;;;26.63;82.92
3142;BME280;1581;51.568;6.998;2023-07-29T12:38:06;100067.53;;;26.64;76.42
3142;BME280;1581;51.568;6.998;2023-07-29T12:40:38;100079.34;;;27.16;76.41
3142;BME280;1581;51.568;6.998;2023-07-29T12:43:08;100092.97;;;27.30;75.00
3142;BME280;1581;51.568;6.998;2023-07-29T12:45:39;100090.00;;;27.48;71.63
3142;BME280;1581;51.568;6.998;2023-07-29T12:48:07;100090.22;;;27.60;68.73
3142;BME280;1581;51.568;6.998;2023-07-29T12:50:35;100086.00;;;27.24;67.23
3142;BME280;1581;51.568;6.998;2023-07-29T12:53:04;100095.53;;;26.91;73.63
3142;BME280;1581;51.568;6.998;2023-07-29T12:55:34;100084.28;;;26.35;75.57
3142;BME280;1581;51.568;6.998;2023-07-29T12:58:02;100079.81;;;26.39;73.94
3142;BME280;1581;51.568;6.998;2023-07-29T13:00:29;100077.81;;;26.45;74.19
3142;BME280;1581;51.568;6.998;2023-07-29T13:02:57;100069.94;;;27.31;69.90
3142;BME280;1581;51.568;6.998;2023-07-29T13:05:25;100080.53;;;26.80;71.61
3142;BME280;1581;51.568;6.998;2023-07-29T13:07:53;100077.22;;;26.92;71.49
3142;BME280;1581;51.568;6.998;2023-07-29T13:10:21;100074.00;;;27.42;72.07
3142;BME280;1581;51.568;6.998;2023-07-29T13:12:50;100073.75;;;27.21;70.04
3142;BME280;1581;51.568;6.998;2023-07-29T13:15:18;100069.09;;;27.00;70.37